Aérodrome :
LOGIN :

S'inscrire | Disclaimer

   EN    FR    IT 

 










Légende :    VFR   VFR Marginal   IFR   IFR Intensif   IFR Très Intensif
Visi : 
Plafond : 
>= 8 km
>= 3000ft
5 à 8 km
1000 à 3000 ft
1500m à 5 km
500 à 1000 ft
800 à 1500m
200 à 500 ft
< 800m
< 200 ft
Symboles :   Orages  Brouillard  Fortes neiges  Fortes précipitations  Vent > 20 kt
SIGMETs :   Divers  Orages  Givrage  Turbulence  Onde Orograph.  Cendres Volcan.






- Altitude de l'aérodrome : 512 ft
- Code IATA : URO


LFOP - Rouen Vallée de Seine

DERNIER METAR :
  • 202200Z AUTO 18020KT 9999 BKN025/// BKN031/// BKN037/// ///CB 09/07 Q0986

METARs EXPIRÉS :
  • 202130Z AUTO 18021KT 140V200 9999 -RA BKN030/// BKN039/// BKN046/// ///CB 09/06 Q0987
  • 202100Z AUTO 17017KT 9999 BKN033/// BKN040/// OVC049/// ///TCU 10/05 Q0988 TEMPO 18025G40KT 3000 RA BKN005 OVC015
  • 202030Z AUTO 17015KT 9999 FEW039 BKN046 BKN056 10/05 Q0988 TEMPO 18025G40KT 3000 RA BKN005 OVC015
  • 202000Z AUTO 17015KT 9999 SCT035 OVC088 09/04 Q0989 TEMPO 18025G40KT 3000 RA BKN005 OVC015
  • 201930Z AUTO 17016KT 9999 SCT034 BKN062 OVC092 09/04 Q0990 TEMPO 18025G40KT 3000 RA BKN005 OVC015

TAF TAF LFOP
Valide du 20 à 18h jusqu'au 21 à 18h UTC


201700Z 2018/2118 18020G30KT 9999 BKN030
TEMPO 2021/2102 18025G40KT 3000 RA BKN005 OVC015
BECMG 2101/2103 24015G25KT
BECMG 2104/2106 22013KT
BECMG 2110/2112 22015G25KT
TEMPO 2114/2118 20025G40KT 2000 RA BKN004 BKN020CB
ATIS : +33 2 35 80 80 34
Météo : +33 2 32 86 52 80



MET'MAP, la Météo Aéronautique d'un coup d'oeil ! - Copyright ORBIFLY Décembre 2007 - Disclaimer

ORBIFLY MET'MAP TEAM :

Programmation & Développement : Alexandra Zaïnal
Sur une idée originale de : Baudouin d'Aumeries
Assistance à la programmation : Marc-Olivier Méhu
Soutien technique & logistique : Manuel Goepfert

Contact : metmap@orbifly.com




SOURCES & CREDITS :

   NOAA